Time;durP1;ratioP1;P1;durP2;ratioP2;P2;SDS_P1;SDS_P2;PMS_P1;PMS_P2;Temp;Humidity;BMP_temperature;BMP_pressure;BME280_temperature;BME280_humidity;BME280_pressure;Samples;Min_cycle;Max_cycle;Signal;HPM_P1;HPM_P2
2022/07/21 00:02:19;;;;;;;41.90;34.83;;;;;;;;;;5044454;28;20039;-67
2022/07/21 00:04:45;;;;;;;38.00;33.38;;;;;;;;;;5039128;28;20037;-69
2022/07/21 00:07:10;;;;;;;38.55;32.50;;;;;;;;;;5047318;28;20041;-66
2022/07/21 00:09:36;;;;;;;43.08;33.58;;;;;;;;;;5046941;28;20112;-67
2022/07/21 00:12:05;;;;;;;43.63;35.70;;;;;;;;;;5052424;28;20486;-69
2022/07/21 00:14:31;;;;;;;;;;;;;;;;;;5046747;28;20029;-69
2022/07/21 00:16:56;;;;;;;46.08;36.78;;;;;;;;;;5045472;28;19975;-69
2022/07/21 00:19:22;;;;;;;53.90;36.58;;;;;;;;;;5046012;28;20531;-69
2022/07/21 00:21:47;;;;;;;47.78;35.55;;;;;;;;;;5046172;28;20046;-68
2022/07/21 00:24:13;;;;;;;45.03;37.20;;;;;;;;;;5046513;28;20488;-70
2022/07/21 00:26:39;;;;;;;47.47;37.47;;;;;;;;;;5046071;28;20072;-66
2022/07/21 00:29:06;;;;;;;49.15;38.20;;;;;;;;;;5042334;28;20123;-70
2022/07/21 00:31:31;;;;;;;47.83;38.30;;;;;;;;;;5046879;28;20453;-69
2022/07/21 00:33:57;;;;;;;45.45;37.20;;;;;;;;;;5046395;28;20032;-67
2022/07/21 00:36:22;;;;;;;53.83;37.92;;;;;;;;;;5047087;28;20032;-67
2022/07/21 00:38:48;;;;;;;45.33;37.90;;;;;;;;;;5045424;28;20100;-70
2022/07/21 00:41:14;;;;;;;44.35;36.58;;;;;;;;;;5046262;28;20045;-70
2022/07/21 00:43:40;;;;;;;47.88;35.25;;;;;;;;;;5044135;28;20029;-70
2022/07/21 00:46:05;;;;;;;44.97;35.03;;;;;;;;;;5048440;28;20036;-70
2022/07/21 00:48:31;;;;;;;49.42;36.58;;;;;;;;;;5043167;28;20029;-69
2022/07/21 00:50:57;;;;;;;50.15;37.30;;;;;;;;;;5047929;28;20191;-68
2022/07/21 00:53:22;;;;;;;45.72;36.63;;;;;;;;;;5043562;28;20039;-69
2022/07/21 00:55:48;;;;;;;43.88;35.75;;;;;;;;;;5045221;28;20112;-69
2022/07/21 00:58:14;;;;;;;43.53;35.00;;;;;;;;;;5047332;28;20488;-69
2022/07/21 01:00:40;;;;;;;46.28;35.53;;;;;;;;;;5047881;28;20036;-70
2022/07/21 01:03:06;;;;;;;46.33;37.83;;;;;;;;;;5046113;28;20113;-69
2022/07/21 01:05:32;;;;;;;47.38;38.70;;;;;;;;;;5044486;28;20036;-69
2022/07/21 01:08:04;;;;;;;48.80;36.83;;;;;;;;;;5040449;28;20038;-69
2022/07/21 01:10:32;;;;;;;44.55;36.78;;;;;;;;;;5047373;28;20041;-69
2022/07/21 01:12:59;;;;;;;46.90;36.63;;;;;;;;;;5043561;28;20094;-69
2022/07/21 01:15:25;;;;;;;49.08;39.25;;;;;;;;;;5046177;28;20109;-69
2022/07/21 01:17:52;;;;;;;57.85;38.95;;;;;;;;;;5044840;28;20037;-69
2022/07/21 01:20:19;;;;;;;52.63;38.47;;;;;;;;;;5046986;28;20104;-69
2022/07/21 01:22:48;;;;;;;48.05;39.38;;;;;;;;;;5041613;28;20039;-69
2022/07/21 01:25:15;;;;;;;53.63;40.88;;;;;;;;;;5048707;28;20051;-68
2022/07/21 01:27:41;;;;;;;52.30;42.58;;;;;;;;;;5048137;28;20024;-69
2022/07/21 01:30:08;;;;;;;48.17;37.72;;;;;;;;;;5044895;28;20120;-68
2022/07/21 01:32:35;;;;;;;47.03;35.35;;;;;;;;;;5040525;28;20697;-69
2022/07/21 01:35:03;;;;;;;44.72;35.10;;;;;;;;;;5044221;28;20090;-69
2022/07/21 01:37:30;;;;;;;41.90;35.13;;;;;;;;;;5039604;28;20033;-69
2022/07/21 01:42:40;;;;;;;40.88;34.83;;;;;;;;;;5046575;28;20029;-69
2022/07/21 01:45:06;;;;;;;36.42;31.98;;;;;;;;;;5045709;28;20044;-69
2022/07/21 01:47:33;;;;;;;26.45;24.05;;;;;;;;;;5043839;28;20039;-70
2022/07/21 01:49:59;;;;;;;26.65;24.15;;;;;;;;;;5040122;28;20041;-69
2022/07/21 01:52:24;;;;;;;25.83;23.23;;;;;;;;;;5043512;28;20033;-69
2022/07/21 01:54:50;;;;;;;27.45;24.70;;;;;;;;;;5045239;28;20029;-68
2022/07/21 01:57:16;;;;;;;27.85;25.15;;;;;;;;;;5042802;28;20051;-68
2022/07/21 01:59:42;;;;;;;29.33;26.42;;;;;;;;;;5045724;28;20051;-70
2022/07/21 02:02:07;;;;;;;30.48;26.38;;;;;;;;;;5045414;28;20025;-69
2022/07/21 02:04:34;;;;;;;29.70;26.55;;;;;;;;;;5043210;28;20033;-70
2022/07/21 02:07:01;;;;;;;36.00;25.60;;;;;;;;;;5042602;28;20055;-69
2022/07/21 02:09:27;;;;;;;30.23;25.50;;;;;;;;;;5041730;28;20033;-70
2022/07/21 02:11:53;;;;;;;27.95;25.02;;;;;;;;;;5043944;28;20070;-69
2022/07/21 02:14:18;;;;;;;26.05;23.23;;;;;;;;;;5042839;28;20037;-69
2022/07/21 02:16:44;;;;;;;19.98;18.08;;;;;;;;;;5041228;28;20037;-69
2022/07/21 02:19:10;;;;;;;21.60;18.98;;;;;;;;;;5044729;28;20095;-69
2022/07/21 02:21:35;;;;;;;21.40;19.40;;;;;;;;;;5046325;28;20251;-69
2022/07/21 02:24:01;;;;;;;20.88;18.80;;;;;;;;;;5042474;28;20044;-69
2022/07/21 02:26:27;;;;;;;21.05;19.02;;;;;;;;;;5046846;28;20043;-69
2022/07/21 02:28:52;;;;;;;23.55;21.35;;;;;;;;;;5044869;28;20134;-69
2022/07/21 02:31:18;;;;;;;22.98;20.65;;;;;;;;;;5041111;28;20025;-69
2022/07/21 02:33:44;;;;;;;23.77;21.55;;;;;;;;;;5040800;28;20044;-69
2022/07/21 02:36:09;;;;;;;24.95;22.48;;;;;;;;;;5039565;28;20040;-69
2022/07/21 02:38:35;;;;;;;26.90;22.92;;;;;;;;;;5044122;28;20071;-69
2022/07/21 02:41:01;;;;;;;24.98;22.52;;;;;;;;;;5035397;28;20175;-69
2022/07/21 02:43:27;;;;;;;25.60;23.10;;;;;;;;;;5042184;28;20641;-69
2022/07/21 02:45:53;;;;;;;25.73;23.27;;;;;;;;;;5042964;28;20033;-69
2022/07/21 02:48:19;;;;;;;26.88;24.17;;;;;;;;;;5045575;28;20550;-69
2022/07/21 02:50:44;;;;;;;24.77;22.38;;;;;;;;;;5038201;28;20439;-69
2022/07/21 02:53:19;;;;;;;23.85;21.45;;;;;;;;;;5045765;28;20561;-69
2022/07/21 02:55:48;;;;;;;25.58;22.92;;;;;;;;;;5041712;28;20060;-69
2022/07/21 02:58:23;;;;;;;23.48;21.17;;;;;;;;;;5038863;28;20100;-69
2022/07/21 03:00:56;;;;;;;22.52;20.45;;;;;;;;;;5041075;28;20116;-69
2022/07/21 03:03:25;;;;;;;23.90;21.70;;;;;;;;;;5046076;28;20520;-69
2022/07/21 03:05:50;;;;;;;25.10;22.48;;;;;;;;;;5047061;28;20495;-68
2022/07/21 03:08:17;;;;;;;24.42;21.90;;;;;;;;;;5043284;28;20126;-69
2022/07/21 03:10:43;;;;;;;26.00;22.33;;;;;;;;;;5048092;28;20069;-69
2022/07/21 03:13:09;;;;;;;22.67;20.48;;;;;;;;;;5047703;28;20114;-69
2022/07/21 03:15:36;;;;;;;23.15;20.75;;;;;;;;;;5047033;28;20488;-69
2022/07/21 03:18:02;;;;;;;23.00;20.70;;;;;;;;;;5043903;28;20032;-69
2022/07/21 03:20:30;;;;;;;23.60;21.40;;;;;;;;;;5044364;28;20044;-69
2022/07/21 03:22:55;;;;;;;24.33;21.08;;;;;;;;;;5045243;28;20040;-69
2022/07/21 03:25:21;;;;;;;22.48;20.17;;;;;;;;;;5047147;28;20029;-69
2022/07/21 03:27:48;;;;;;;24.58;21.83;;;;;;;;;;5047598;28;20052;-67
2022/07/21 03:30:14;;;;;;;23.80;21.45;;;;;;;;;;5045637;28;20510;-67
2022/07/21 03:32:40;;;;;;;24.23;21.73;;;;;;;;;;5047799;28;20037;-66
2022/07/21 03:35:10;;;;;;;24.25;22.05;;;;;;;;;;5044483;28;20052;-67
2022/07/21 03:37:46;;;;;;;23.33;20.83;;;;;;;;;;5043155;28;20060;-67
2022/07/21 03:40:14;;;;;;;22.90;20.50;;;;;;;;;;5043969;28;20037;-67
2022/07/21 03:42:40;;;;;;;23.73;20.92;;;;;;;;;;5045866;28;20155;-67
2022/07/21 03:45:08;;;;;;;22.35;20.08;;;;;;;;;;5043453;28;20111;-67
2022/07/21 03:47:33;;;;;;;22.27;20.17;;;;;;;;;;5049167;28;20041;-67
2022/07/21 03:49:59;;;;;;;21.65;19.55;;;;;;;;;;5046758;28;20040;-67
2022/07/21 03:52:25;;;;;;;21.38;19.45;;;;;;;;;;5046238;28;20044;-67
2022/07/21 03:55:07;;;;;;;23.38;21.08;;;;;;;;;;5046353;28;20102;-67
2022/07/21 03:57:44;;;;;;;23.58;20.27;;;;;;;;;;5046479;28;20127;-66
2022/07/21 04:00:23;;;;;;;22.40;20.30;;;;;;;;;;5042013;28;20037;-67
2022/07/21 04:02:49;;;;;;;22.75;20.58;;;;;;;;;;5040848;28;20071;-68
2022/07/21 04:05:17;;;;;;;22.60;20.30;;;;;;;;;;5044685;28;20404;-67
2022/07/21 04:07:44;;;;;;;23.02;20.73;;;;;;;;;;5046427;28;20550;-67
2022/07/21 04:10:12;;;;;;;22.58;20.40;;;;;;;;;;5045404;28;20040;-67
2022/07/21 04:12:39;;;;;;;30.38;21.58;;;;;;;;;;5033177;28;20033;-67
2022/07/21 04:15:06;;;;;;;24.38;21.83;;;;;;;;;;5040880;28;20105;-68
2022/07/21 04:17:32;;;;;;;24.25;21.60;;;;;;;;;;5039033;28;20039;-68
2022/07/21 04:19:57;;;;;;;24.23;21.92;;;;;;;;;;5039467;28;20041;-67
2022/07/21 04:22:23;;;;;;;24.65;22.15;;;;;;;;;;5041378;28;20021;-67
2022/07/21 04:24:48;;;;;;;26.42;23.10;;;;;;;;;;5045592;28;20032;-67
2022/07/21 04:27:14;;;;;;;25.90;23.13;;;;;;;;;;5038984;28;20036;-66
2022/07/21 04:29:40;;;;;;;25.73;22.98;;;;;;;;;;5039671;28;20104;-67
2022/07/21 04:32:05;;;;;;;25.55;23.05;;;;;;;;;;5041082;28;20033;-67
2022/07/21 04:34:31;;;;;;;24.48;21.88;;;;;;;;;;5046914;28;20033;-66
2022/07/21 04:36:57;;;;;;;24.50;21.88;;;;;;;;;;5040041;28;20037;-67
2022/07/21 04:39:22;;;;;;;23.60;21.00;;;;;;;;;;5040826;28;20025;-68
2022/07/21 04:41:48;;;;;;;24.90;22.40;;;;;;;;;;5031537;28;20041;-68
2022/07/21 04:44:13;;;;;;;24.17;21.75;;;;;;;;;;5036005;28;20481;-68
2022/07/21 04:46:39;;;;;;;23.20;21.10;;;;;;;;;;5040195;28;20036;-68
2022/07/21 04:49:05;;;;;;;23.35;20.98;;;;;;;;;;5038701;28;20040;-68
2022/07/21 04:51:30;;;;;;;24.20;21.80;;;;;;;;;;5028253;28;20091;-69
2022/07/21 04:53:56;;;;;;;25.08;22.05;;;;;;;;;;5044266;28;20029;-68
2022/07/21 04:56:21;;;;;;;23.50;21.25;;;;;;;;;;5046560;28;20041;-68
2022/07/21 04:58:48;;;;;;;24.52;22.17;;;;;;;;;;5045803;28;20037;-68
2022/07/21 05:01:13;;;;;;;23.27;20.95;;;;;;;;;;5043178;28;20033;-68
2022/07/21 05:03:39;;;;;;;24.02;21.67;;;;;;;;;;5043055;28;20102;-68
2022/07/21 05:06:05;;;;;;;23.17;20.92;;;;;;;;;;5045083;28;20029;-68
2022/07/21 05:08:30;;;;;;;22.25;19.95;;;;;;;;;;5041918;28;20025;-69
2022/07/21 05:10:56;;;;;;;21.92;19.65;;;;;;;;;;5044285;28;20041;-68
2022/07/21 05:13:22;;;;;;;20.33;18.35;;;;;;;;;;5040397;28;20079;-68
2022/07/21 05:15:47;;;;;;;19.77;17.77;;;;;;;;;;5038611;28;20152;-68
2022/07/21 05:18:13;;;;;;;19.58;17.55;;;;;;;;;;5042539;28;20033;-70
2022/07/21 05:20:38;;;;;;;18.55;16.85;;;;;;;;;;5042818;28;20397;-70
2022/07/21 05:23:04;;;;;;;18.67;17.08;;;;;;;;;;5041230;28;20044;-70
2022/07/21 05:25:31;;;;;;;17.98;16.38;;;;;;;;;;5042246;28;20064;-70
2022/07/21 05:27:58;;;;;;;18.30;16.70;;;;;;;;;;5043649;28;20780;-70
2022/07/21 05:30:23;;;;;;;17.70;16.30;;;;;;;;;;5044113;28;20040;-70
2022/07/21 05:32:49;;;;;;;17.83;16.13;;;;;;;;;;5041984;28;20052;-70
2022/07/21 05:35:15;;;;;;;16.45;14.95;;;;;;;;;;5037922;28;20665;-70
2022/07/21 05:37:41;;;;;;;16.83;15.43;;;;;;;;;;5046174;28;20067;-70
2022/07/21 05:40:08;;;;;;;16.95;15.48;;;;;;;;;;5040282;28;20065;-70
2022/07/21 05:42:35;;;;;;;17.30;15.75;;;;;;;;;;5045805;28;20025;-70
2022/07/21 05:45:01;;;;;;;17.20;15.63;;;;;;;;;;5045222;28;20492;-69
2022/07/21 05:47:26;;;;;;;17.30;15.65;;;;;;;;;;5045715;28;20052;-70
2022/07/21 05:49:52;;;;;;;16.58;15.18;;;;;;;;;;5043265;28;20041;-70
2022/07/21 05:52:18;;;;;;;16.23;14.88;;;;;;;;;;5046206;28;20197;-70
2022/07/21 05:54:43;;;;;;;16.73;15.13;;;;;;;;;;5043997;28;20029;-70
2022/07/21 05:57:09;;;;;;;17.20;15.57;;;;;;;;;;5042177;28;20041;-70
2022/07/21 05:59:34;;;;;;;16.23;14.93;;;;;;;;;;5044716;28;20040;-70
2022/07/21 06:02:00;;;;;;;16.17;14.73;;;;;;;;;;5042874;28;20036;-70
2022/07/21 06:04:26;;;;;;;15.70;14.20;;;;;;;;;;5041169;28;20512;-70
2022/07/21 06:06:52;;;;;;;16.92;15.57;;;;;;;;;;5040636;28;20037;-70
2022/07/21 06:09:19;;;;;;;15.65;14.23;;;;;;;;;;5043838;28;20079;-70
2022/07/21 06:11:45;;;;;;;16.67;15.27;;;;;;;;;;5040807;28;20452;-70
2022/07/21 06:14:10;;;;;;;16.85;15.43;;;;;;;;;;5044142;28;20033;-69
2022/07/21 06:16:36;;;;;;;16.98;15.55;;;;;;;;;;5043558;28;20082;-70
2022/07/21 06:19:02;;;;;;;18.13;16.30;;;;;;;;;;5046588;28;20476;-69
2022/07/21 06:21:28;;;;;;;18.13;16.48;;;;;;;;;;5047348;28;20033;-70
2022/07/21 06:23:53;;;;;;;18.45;16.45;;;;;;;;;;5040502;28;20171;-69
2022/07/21 06:26:19;;;;;;;18.02;16.42;;;;;;;;;;5038345;28;20037;-70
2022/07/21 06:28:45;;;;;;;17.20;15.60;;;;;;;;;;5045024;28;20220;-70
2022/07/21 06:31:10;;;;;;;18.17;16.70;;;;;;;;;;5041542;28;20576;-70
2022/07/21 06:33:36;;;;;;;17.58;15.95;;;;;;;;;;5043875;28;20074;-70
2022/07/21 06:36:02;;;;;;;16.70;15.20;;;;;;;;;;5041165;28;20408;-70
2022/07/21 06:38:27;;;;;;;18.17;16.33;;;;;;;;;;5047314;28;20143;-69
2022/07/21 06:40:53;;;;;;;17.70;15.98;;;;;;;;;;5051359;28;20459;-69
2022/07/21 06:43:19;;;;;;;16.88;15.35;;;;;;;;;;5049177;28;20043;-69
2022/07/21 06:45:45;;;;;;;17.38;15.70;;;;;;;;;;5049022;28;20029;-69
2022/07/21 06:48:12;;;;;;;17.27;15.68;;;;;;;;;;5040515;28;20037;-69
2022/07/21 06:50:38;;;;;;;17.02;15.63;;;;;;;;;;5051855;28;20056;-69
2022/07/21 06:53:04;;;;;;;15.60;14.30;;;;;;;;;;5048577;28;20029;-70
2022/07/21 06:55:30;;;;;;;18.65;15.00;;;;;;;;;;5047341;28;20032;-69
2022/07/21 06:57:55;;;;;;;15.68;14.48;;;;;;;;;;5042846;28;20576;-69
2022/07/21 07:00:21;;;;;;;16.45;15.05;;;;;;;;;;5051273;28;20442;-69
2022/07/21 07:02:47;;;;;;;16.50;14.95;;;;;;;;;;5044567;28;20025;-69
2022/07/21 07:05:13;;;;;;;17.23;15.82;;;;;;;;;;5044472;28;20073;-69
2022/07/21 07:07:39;;;;;;;17.38;15.93;;;;;;;;;;5042599;28;20051;-70
2022/07/21 07:10:06;;;;;;;16.98;15.43;;;;;;;;;;5050101;28;20456;-70
2022/07/21 07:12:31;;;;;;;17.10;15.50;;;;;;;;;;5046783;28;20025;-69
2022/07/21 07:14:57;;;;;;;15.45;14.25;;;;;;;;;;5048506;28;20133;-69
2022/07/21 07:17:23;;;;;;;15.85;14.45;;;;;;;;;;5044960;28;20115;-69
2022/07/21 07:19:49;;;;;;;15.60;14.20;;;;;;;;;;5051557;28;20048;-69
2022/07/21 07:22:15;;;;;;;15.40;13.82;;;;;;;;;;5050500;28;20040;-69
2022/07/21 07:24:40;;;;;;;14.65;13.45;;;;;;;;;;5049848;28;20035;-70
2022/07/21 07:27:06;;;;;;;15.57;14.07;;;;;;;;;;5047333;28;20098;-69
2022/07/21 07:29:32;;;;;;;15.30;13.98;;;;;;;;;;5049097;28;20499;-69
2022/07/21 07:31:58;;;;;;;14.90;13.60;;;;;;;;;;5043052;28;20037;-69
2022/07/21 07:34:24;;;;;;;15.18;13.75;;;;;;;;;;5048891;28;20065;-69
2022/07/21 07:36:50;;;;;;;17.60;14.27;;;;;;;;;;5052335;28;20056;-69
2022/07/21 07:39:16;;;;;;;14.57;13.23;;;;;;;;;;5051188;28;20037;-69
2022/07/21 07:41:43;;;;;;;14.82;13.38;;;;;;;;;;5050527;28;20518;-69
2022/07/21 07:44:09;;;;;;;14.18;12.65;;;;;;;;;;5048079;28;20040;-69
2022/07/21 07:46:35;;;;;;;13.30;12.10;;;;;;;;;;5051344;28;20052;-69
2022/07/21 07:49:00;;;;;;;13.45;12.20;;;;;;;;;;5044127;28;20449;-69
2022/07/21 07:51:26;;;;;;;14.48;13.05;;;;;;;;;;5047894;28;20025;-69
2022/07/21 07:53:51;;;;;;;14.48;13.13;;;;;;;;;;5040406;28;20073;-69
2022/07/21 07:56:17;;;;;;;14.10;12.82;;;;;;;;;;5046657;28;20040;-69
2022/07/21 07:58:43;;;;;;;14.25;12.95;;;;;;;;;;5040377;28;20377;-69
2022/07/21 08:01:09;;;;;;;14.63;13.43;;;;;;;;;;5046443;28;20041;-69
2022/07/21 08:03:35;;;;;;;13.95;12.55;;;;;;;;;;5051360;28;20029;-69
2022/07/21 08:06:06;;;;;;;12.95;11.70;;;;;;;;;;5045022;28;20029;-69
2022/07/21 08:08:32;;;;;;;12.70;11.70;;;;;;;;;;5046566;28;20484;-69
2022/07/21 08:10:58;;;;;;;12.98;11.43;;;;;;;;;;5043126;28;20409;-69
2022/07/21 08:13:24;;;;;;;12.73;11.27;;;;;;;;;;5047393;28;20025;-69
2022/07/21 08:15:49;;;;;;;12.07;10.95;;;;;;;;;;5045085;28;20273;-69
2022/07/21 08:18:16;;;;;;;12.38;10.25;;;;;;;;;;5042197;28;20033;-69
2022/07/21 08:20:43;;;;;;;11.98;10.95;;;;;;;;;;5043793;28;20041;-69
2022/07/21 08:23:09;;;;;;;13.70;11.25;;;;;;;;;;5043640;28;20047;-69
2022/07/21 08:25:35;;;;;;;10.88;9.75;;;;;;;;;;5043432;28;20033;-69
2022/07/21 08:28:00;;;;;;;10.88;9.85;;;;;;;;;;5046677;28;20446;-69
2022/07/21 08:30:26;;;;;;;11.23;10.00;;;;;;;;;;5043562;28;20271;-70
2022/07/21 08:32:52;;;;;;;12.02;10.88;;;;;;;;;;5045528;28;20064;-69
2022/07/21 08:35:18;;;;;;;11.65;10.55;;;;;;;;;;5044623;28;20469;-68
2022/07/21 08:37:56;;;;;;;12.57;10.15;;;;;;;;;;5046109;28;20399;-69
2022/07/21 08:40:26;;;;;;;12.38;11.38;;;;;;;;;;5046137;28;20024;-69
2022/07/21 08:42:53;;;;;;;12.55;11.35;;;;;;;;;;5047287;28;20068;-69
2022/07/21 08:45:19;;;;;;;11.25;10.35;;;;;;;;;;5040741;28;20457;-69
2022/07/21 08:47:44;;;;;;;12.25;10.07;;;;;;;;;;5046371;28;20032;-68
2022/07/21 08:50:10;;;;;;;10.20;9.30;;;;;;;;;;5045185;28;20060;-68
2022/07/21 08:52:36;;;;;;;11.05;10.07;;;;;;;;;;5043939;28;20396;-68
2022/07/21 08:55:02;;;;;;;11.15;10.15;;;;;;;;;;5042816;28;20028;-68
2022/07/21 08:57:27;;;;;;;17.35;10.48;;;;;;;;;;5043528;28;20033;-67
2022/07/21 08:59:53;;;;;;;10.70;9.90;;;;;;;;;;5037333;28;20036;-68
2022/07/21 09:02:30;;;;;;;11.60;10.50;;;;;;;;;;5039793;28;20062;-67
2022/07/21 09:04:56;;;;;;;10.45;9.55;;;;;;;;;;5046238;28;20166;-67
2022/07/21 09:07:23;;;;;;;10.93;9.82;;;;;;;;;;5039747;28;20115;-67
2022/07/21 09:10:00;;;;;;;10.70;9.70;;;;;;;;;;5046016;28;20029;-68
2022/07/21 09:12:27;;;;;;;11.20;10.00;;;;;;;;;;5037826;28;20037;-68
2022/07/21 09:15:12;;;;;;;11.40;10.40;;;;;;;;;;5044910;28;20067;-67
2022/07/21 09:17:37;;;;;;;10.48;9.65;;;;;;;;;;5036698;28;20524;-67
2022/07/21 09:20:04;;;;;;;10.75;9.77;;;;;;;;;;5042926;28;20097;-68
2022/07/21 09:22:30;;;;;;;10.07;9.18;;;;;;;;;;5041862;28;20480;-68
2022/07/21 09:24:55;;;;;;;9.85;8.90;;;;;;;;;;5041866;28;20048;-68
2022/07/21 09:27:25;;;;;;;9.65;8.63;;;;;;;;;;5045040;28;20033;-68
2022/07/21 09:29:57;;;;;;;9.30;8.35;;;;;;;;;;5039854;28;20376;-68
2022/07/21 09:32:25;;;;;;;9.45;8.73;;;;;;;;;;5044909;28;20037;-67
2022/07/21 09:34:53;;;;;;;8.85;7.90;;;;;;;;;;5040153;28;20032;-68
2022/07/21 09:37:21;;;;;;;8.70;8.00;;;;;;;;;;5043630;28;20044;-68
2022/07/21 09:39:56;;;;;;;8.60;7.82;;;;;;;;;;5042128;28;20037;-68
2022/07/21 09:42:21;;;;;;;8.40;7.60;;;;;;;;;;5046844;28;20488;-68
2022/07/21 09:44:51;;;;;;;8.60;7.72;;;;;;;;;;5043526;28;20076;-68
2022/07/21 09:47:18;;;;;;;10.30;8.18;;;;;;;;;;5041099;28;20512;-68
2022/07/21 09:49:44;;;;;;;10.60;8.00;;;;;;;;;;5040634;28;20036;-67
2022/07/21 09:52:26;;;;;;;8.98;8.18;;;;;;;;;;5042046;28;20029;-67
2022/07/21 09:54:53;;;;;;;8.52;7.82;;;;;;;;;;5029159;28;20033;-68
2022/07/21 09:57:20;;;;;;;9.27;8.00;;;;;;;;;;5037700;28;20397;-68
2022/07/21 09:59:48;;;;;;;8.43;7.72;;;;;;;;;;5039300;28;20121;-68
2022/07/21 10:02:16;;;;;;;8.00;7.40;;;;;;;;;;5035638;28;20037;-68
2022/07/21 10:04:45;;;;;;;7.90;7.07;;;;;;;;;;5038845;28;20195;-68
2022/07/21 10:07:10;;;;;;;7.63;6.95;;;;;;;;;;5036600;28;20501;-68
2022/07/21 10:09:37;;;;;;;8.98;8.20;;;;;;;;;;5037538;28;20067;-68
2022/07/21 10:12:02;;;;;;;8.63;7.80;;;;;;;;;;5027333;28;20033;-67
2022/07/21 10:14:28;;;;;;;7.80;7.20;;;;;;;;;;5040678;28;20087;-68
2022/07/21 10:16:54;;;;;;;8.90;7.95;;;;;;;;;;5036556;28;20124;-67
2022/07/21 10:19:34;;;;;;;8.80;7.80;;;;;;;;;;5042214;28;20344;-67
2022/07/21 10:22:21;;;;;;;8.70;8.00;;;;;;;;;;5038004;28;20056;-67
2022/07/21 10:24:47;;;;;;;7.20;6.50;;;;;;;;;;5037925;28;20124;-69
2022/07/21 10:27:13;;;;;;;7.40;6.80;;;;;;;;;;5044827;28;20104;-67
2022/07/21 10:29:49;;;;;;;8.70;7.82;;;;;;;;;;5037432;28;20040;-68
2022/07/21 10:32:16;;;;;;;8.07;7.30;;;;;;;;;;5035146;28;20065;-68
2022/07/21 10:34:45;;;;;;;8.48;7.78;;;;;;;;;;5037623;28;20110;-68
2022/07/21 10:37:11;;;;;;;8.73;8.02;;;;;;;;;;5043156;28;20443;-68
2022/07/21 10:39:38;;;;;;;8.55;7.85;;;;;;;;;;5035568;28;20033;-68
2022/07/21 10:42:15;;;;;;;8.77;7.95;;;;;;;;;;5041418;28;20032;-68
2022/07/21 10:44:43;;;;;;;8.10;7.35;;;;;;;;;;5038683;28;20116;-68
2022/07/21 10:47:20;;;;;;;7.78;7.07;;;;;;;;;;5040580;28;20037;-68
2022/07/21 10:49:55;;;;;;;7.47;6.88;;;;;;;;;;5033718;28;20052;-68
2022/07/21 10:52:39;;;;;;;8.43;7.53;;;;;;;;;;5043495;28;20055;-68
2022/07/21 10:55:11;;;;;;;8.05;7.40;;;;;;;;;;5041083;28;20090;-68
2022/07/21 10:57:44;;;;;;;8.00;7.30;;;;;;;;;;5033907;28;20067;-68
2022/07/21 11:00:19;;;;;;;7.60;7.05;;;;;;;;;;5040683;28;20400;-68
2022/07/21 11:02:51;;;;;;;7.78;7.07;;;;;;;;;;5034477;28;20064;-68
2022/07/21 11:05:17;;;;;;;7.53;6.82;;;;;;;;;;5040975;28;20037;-69
2022/07/21 11:08:13;;;;;;;7.43;6.75;;;;;;;;;;5035126;28;20035;-68
2022/07/21 11:10:51;;;;;;;8.45;7.65;;;;;;;;;;5034062;28;20039;-68
2022/07/21 11:13:18;;;;;;;8.05;7.45;;;;;;;;;;5037711;28;20491;-68
2022/07/21 11:15:54;;;;;;;7.83;7.23;;;;;;;;;;5036658;28;20036;-68
2022/07/21 11:18:25;;;;;;;7.93;7.13;;;;;;;;;;5041631;28;20025;-68
2022/07/21 11:21:23;;;;;;;8.60;7.90;;;;;;;;;;5034641;28;20029;-68
2022/07/21 11:23:49;;;;;;;8.93;8.23;;;;;;;;;;4982463;28;20374;-68
2022/07/21 11:26:17;;;;;;;8.80;8.10;;;;;;;;;;4986409;28;20088;-68
2022/07/21 11:28:45;;;;;;;8.77;8.18;;;;;;;;;;4985791;28;20065;-68
2022/07/21 11:31:13;;;;;;;8.68;8.07;;;;;;;;;;4986201;28;20129;-68
2022/07/21 11:33:41;;;;;;;8.85;8.02;;;;;;;;;;4981799;28;20245;-68
2022/07/21 11:36:07;;;;;;;9.38;8.57;;;;;;;;;;4984227;28;20465;-68
2022/07/21 11:38:33;;;;;;;8.70;7.90;;;;;;;;;;4986526;28;20101;-68
2022/07/21 11:41:18;;;;;;;8.13;7.43;;;;;;;;;;4986673;28;20054;-68
2022/07/21 11:43:45;;;;;;;8.32;7.68;;;;;;;;;;4983646;28;20281;-68
2022/07/21 11:46:12;;;;;;;8.50;7.60;;;;;;;;;;4984830;28;20054;-68
2022/07/21 11:48:37;;;;;;;8.52;7.82;;;;;;;;;;4986245;28;20117;-68
2022/07/21 11:51:04;;;;;;;9.77;7.57;;;;;;;;;;4986307;28;20470;-68
2022/07/21 11:53:31;;;;;;;8.43;7.82;;;;;;;;;;4986127;28;20050;-68
2022/07/21 11:55:57;;;;;;;8.93;8.02;;;;;;;;;;4984786;28;20413;-67
2022/07/21 11:58:23;;;;;;;9.02;8.32;;;;;;;;;;4988826;28;20485;-68
2022/07/21 12:00:49;;;;;;;9.55;7.93;;;;;;;;;;5036723;28;20412;-68
2022/07/21 12:03:15;;;;;;;8.65;7.75;;;;;;;;;;5036556;28;20610;-68
2022/07/21 12:05:41;;;;;;;8.63;8.02;;;;;;;;;;5046189;28;20127;-68
2022/07/21 12:08:07;;;;;;;8.27;7.57;;;;;;;;;;5040864;28;20071;-68
2022/07/21 12:10:33;;;;;;;7.88;7.28;;;;;;;;;;5037993;28;20464;-68
2022/07/21 12:13:02;;;;;;;7.88;7.28;;;;;;;;;;5041232;28;20036;-68
2022/07/21 12:15:31;;;;;;;8.88;8.02;;;;;;;;;;5043155;28;20041;-68
2022/07/21 12:18:09;;;;;;;8.90;7.90;;;;;;;;;;5038061;28;20055;-68
2022/07/21 12:20:37;;;;;;;9.50;8.70;;;;;;;;;;5040741;28;20090;-68
2022/07/21 12:23:18;;;;;;;8.98;8.00;;;;;;;;;;5043350;28;20033;-68
2022/07/21 12:25:44;;;;;;;10.18;9.18;;;;;;;;;;5037726;28;20044;-68
2022/07/21 12:28:09;;;;;;;9.20;8.40;;;;;;;;;;5044478;28;20037;-68
2022/07/21 12:30:44;;;;;;;8.10;7.47;;;;;;;;;;5043533;28;20044;-68
2022/07/21 12:33:15;;;;;;;8.65;7.85;;;;;;;;;;5042718;28;20247;-68
2022/07/21 12:35:48;;;;;;;8.73;8.02;;;;;;;;;;5036053;28;20029;-68
2022/07/21 12:38:16;;;;;;;8.45;7.85;;;;;;;;;;5042203;28;20091;-68
2022/07/21 12:40:45;;;;;;;8.13;7.32;;;;;;;;;;5043971;28;20499;-68
2022/07/21 12:43:16;;;;;;;8.50;7.75;;;;;;;;;;5042575;28;20124;-68
2022/07/21 12:46:00;;;;;;;8.55;7.70;;;;;;;;;;5041300;28;20057;-68
2022/07/21 12:48:28;;;;;;;8.85;8.05;;;;;;;;;;5043428;28;20028;-68
2022/07/21 12:51:20;;;;;;;8.63;7.80;;;;;;;;;;5041129;28;20033;-67
2022/07/21 12:53:51;;;;;;;7.78;7.07;;;;;;;;;;5038536;28;20492;-68
2022/07/21 12:56:23;;;;;;;9.38;7.80;;;;;;;;;;5043011;28;20119;-68
2022/07/21 12:58:50;;;;;;;8.30;7.57;;;;;;;;;;5038078;28;20063;-68
2022/07/21 13:01:17;;;;;;;9.30;8.50;;;;;;;;;;5041454;28;20479;-68
2022/07/21 13:03:44;;;;;;;8.40;7.65;;;;;;;;;;5040871;28;20052;-68
2022/07/21 13:06:10;;;;;;;8.25;7.65;;;;;;;;;;5040629;28;20052;-68
2022/07/21 13:08:38;;;;;;;8.50;7.75;;;;;;;;;;5037479;28;20033;-68
2022/07/21 13:11:06;;;;;;;8.27;7.67;;;;;;;;;;5039099;28;20041;-68
2022/07/21 13:13:32;;;;;;;8.87;8.13;;;;;;;;;;5041364;28;20043;-68
2022/07/21 13:15:58;;;;;;;9.10;8.10;;;;;;;;;;5037451;28;20037;-68
2022/07/21 13:18:24;;;;;;;8.63;8.02;;;;;;;;;;5043035;28;20086;-67
2022/07/21 13:20:51;;;;;;;9.98;9.07;;;;;;;;;;5041715;28;20037;-68
2022/07/21 13:23:18;;;;;;;10.10;8.90;;;;;;;;;;5044567;28;20047;-68
2022/07/21 13:25:44;;;;;;;9.80;9.00;;;;;;;;;;5034320;28;20112;-67
2022/07/21 13:28:10;;;;;;;8.95;8.13;;;;;;;;;;5041797;28;20033;-68
2022/07/21 13:30:35;;;;;;;9.27;8.55;;;;;;;;;;5044999;28;20512;-68
2022/07/21 13:33:01;;;;;;;9.32;8.52;;;;;;;;;;5040874;28;20029;-67
2022/07/21 13:35:27;;;;;;;10.27;9.38;;;;;;;;;;5034200;28;20047;-68
2022/07/21 13:37:56;;;;;;;9.30;8.55;;;;;;;;;;5038662;28;20554;-68
2022/07/21 13:40:23;;;;;;;12.13;8.43;;;;;;;;;;5041885;28;20036;-68
2022/07/21 13:42:48;;;;;;;9.45;8.63;;;;;;;;;;5040950;28;20107;-67
2022/07/21 13:45:15;;;;;;;9.15;8.45;;;;;;;;;;5041651;28;20078;-68
2022/07/21 13:47:42;;;;;;;9.93;8.60;;;;;;;;;;5043584;28;20424;-68
2022/07/21 13:50:08;;;;;;;10.15;9.15;;;;;;;;;;5036979;28;20041;-68
2022/07/21 13:52:34;;;;;;;9.65;8.73;;;;;;;;;;5030280;28;20680;-66
2022/07/21 13:55:00;;;;;;;9.02;8.23;;;;;;;;;;5043399;28;20037;-68
2022/07/21 13:57:26;;;;;;;9.05;8.40;;;;;;;;;;5041439;28;20207;-68
2022/07/21 13:59:51;;;;;;;9.05;8.25;;;;;;;;;;5039599;28;20609;-68
2022/07/21 14:02:17;;;;;;;9.63;8.73;;;;;;;;;;5039022;28;20036;-68
2022/07/21 14:04:43;;;;;;;10.10;9.20;;;;;;;;;;5043650;28;20041;-68
2022/07/21 14:07:10;;;;;;;9.85;8.95;;;;;;;;;;5040681;28;20504;-68
2022/07/21 14:09:36;;;;;;;9.65;8.77;;;;;;;;;;5044842;28;20037;-67
2022/07/21 14:12:02;;;;;;;9.63;8.73;;;;;;;;;;5035315;28;20036;-68
2022/07/21 14:14:28;;;;;;;10.65;9.68;;;;;;;;;;5040859;28;20033;-68
2022/07/21 14:16:54;;;;;;;10.13;9.13;;;;;;;;;;5040672;28;20047;-68
2022/07/21 14:19:20;;;;;;;9.77;8.98;;;;;;;;;;5043046;28;20056;-68
2022/07/21 14:21:46;;;;;;;10.02;8.88;;;;;;;;;;5044432;28;20033;-68
2022/07/21 14:26:55;;;;;;;9.43;8.55;;;;;;;;;;5040301;28;20029;-68
2022/07/21 14:29:21;;;;;;;10.25;9.13;;;;;;;;;;5045215;28;20056;-67
2022/07/21 14:31:49;;;;;;;9.10;8.40;;;;;;;;;;5044512;28;20027;-66
2022/07/21 14:34:15;;;;;;;9.65;8.70;;;;;;;;;;5044356;28;20044;-67